sensor_id;sensor_type;location;lat;lon;timestamp;temperature;humidity
7720;DHT22;3902;49.474;8.616;2022-07-23T00:00:16;25.90;99.90
7720;DHT22;3902;49.474;8.616;2022-07-23T00:02:43;25.90;99.90
7720;DHT22;3902;49.474;8.616;2022-07-23T00:05:09;25.90;99.90
7720;DHT22;3902;49.474;8.616;2022-07-23T00:07:35;25.80;99.90
7720;DHT22;3902;49.474;8.616;2022-07-23T00:10:01;25.90;99.90
7720;DHT22;3902;49.474;8.616;2022-07-23T00:12:27;25.80;99.90
7720;DHT22;3902;49.474;8.616;2022-07-23T00:14:52;25.80;99.90
7720;DHT22;3902;49.474;8.616;2022-07-23T00:17:18;25.80;99.90
7720;DHT22;3902;49.474;8.616;2022-07-23T00:19:44;25.80;99.90
7720;DHT22;3902;49.474;8.616;2022-07-23T00:22:09;25.70;99.90
7720;DHT22;3902;49.474;8.616;2022-07-23T00:24:35;25.70;99.90
7720;DHT22;3902;49.474;8.616;2022-07-23T00:27:00;25.70;99.90
7720;DHT22;3902;49.474;8.616;2022-07-23T00:29:26;25.60;99.90
7720;DHT22;3902;49.474;8.616;2022-07-23T00:31:52;25.40;99.90
7720;DHT22;3902;49.474;8.616;2022-07-23T00:34:17;25.40;99.90
7720;DHT22;3902;49.474;8.616;2022-07-23T00:36:43;25.40;99.90
7720;DHT22;3902;49.474;8.616;2022-07-23T00:39:08;25.40;99.90
7720;DHT22;3902;49.474;8.616;2022-07-23T00:41:34;25.30;99.90
7720;DHT22;3902;49.474;8.616;2022-07-23T00:44:23;25.30;99.90
7720;DHT22;3902;49.474;8.616;2022-07-23T00:46:51;25.20;99.90
7720;DHT22;3902;49.474;8.616;2022-07-23T00:49:23;25.10;99.90
7720;DHT22;3902;49.474;8.616;2022-07-23T00:51:49;25.10;99.90
7720;DHT22;3902;49.474;8.616;2022-07-23T00:54:16;25.20;99.90
7720;DHT22;3902;49.474;8.616;2022-07-23T00:56:46;25.20;99.90
7720;DHT22;3902;49.474;8.616;2022-07-23T00:59:13;25.20;99.90
7720;DHT22;3902;49.474;8.616;2022-07-23T01:01:39;25.20;99.90
7720;DHT22;3902;49.474;8.616;2022-07-23T01:04:05;25.10;99.90
7720;DHT22;3902;49.474;8.616;2022-07-23T01:06:35;25.20;99.90
7720;DHT22;3902;49.474;8.616;2022-07-23T01:09:02;25.10;99.90
7720;DHT22;3902;49.474;8.616;2022-07-23T01:11:28;25.10;99.90
7720;DHT22;3902;49.474;8.616;2022-07-23T01:13:54;25.10;99.90
7720;DHT22;3902;49.474;8.616;2022-07-23T01:16:19;25.10;99.90
7720;DHT22;3902;49.474;8.616;2022-07-23T01:18:45;25.10;99.90
7720;DHT22;3902;49.474;8.616;2022-07-23T01:21:12;25.10;99.90
7720;DHT22;3902;49.474;8.616;2022-07-23T01:23:38;25.10;99.90
7720;DHT22;3902;49.474;8.616;2022-07-23T01:26:04;25.10;99.90
7720;DHT22;3902;49.474;8.616;2022-07-23T01:28:30;25.10;99.90
7720;DHT22;3902;49.474;8.616;2022-07-23T01:30:55;24.90;99.90
7720;DHT22;3902;49.474;8.616;2022-07-23T01:33:21;24.90;99.90
7720;DHT22;3902;49.474;8.616;2022-07-23T01:35:46;24.80;99.90
7720;DHT22;3902;49.474;8.616;2022-07-23T01:38:12;24.90;99.90
7720;DHT22;3902;49.474;8.616;2022-07-23T01:40:37;24.80;99.90
7720;DHT22;3902;49.474;8.616;2022-07-23T01:43:03;24.80;99.90
7720;DHT22;3902;49.474;8.616;2022-07-23T01:45:28;24.80;99.90
7720;DHT22;3902;49.474;8.616;2022-07-23T01:47:54;24.70;99.90
7720;DHT22;3902;49.474;8.616;2022-07-23T01:50:20;24.70;99.90
7720;DHT22;3902;49.474;8.616;2022-07-23T01:52:45;24.70;99.90
7720;DHT22;3902;49.474;8.616;2022-07-23T01:55:11;24.70;99.90
7720;DHT22;3902;49.474;8.616;2022-07-23T01:57:37;24.70;99.90
7720;DHT22;3902;49.474;8.616;2022-07-23T02:00:02;24.70;99.90
7720;DHT22;3902;49.474;8.616;2022-07-23T02:02:28;24.60;99.90
7720;DHT22;3902;49.474;8.616;2022-07-23T02:04:54;24.60;99.90
7720;DHT22;3902;49.474;8.616;2022-07-23T02:07:19;24.60;99.90
7720;DHT22;3902;49.474;8.616;2022-07-23T02:09:45;24.60;99.90
7720;DHT22;3902;49.474;8.616;2022-07-23T02:12:10;24.50;99.90
7720;DHT22;3902;49.474;8.616;2022-07-23T02:14:36;24.40;99.90
7720;DHT22;3902;49.474;8.616;2022-07-23T02:17:01;24.40;99.90
7720;DHT22;3902;49.474;8.616;2022-07-23T02:19:27;24.40;99.90
7720;DHT22;3902;49.474;8.616;2022-07-23T02:21:53;24.40;99.90
7720;DHT22;3902;49.474;8.616;2022-07-23T02:24:19;24.40;99.90
7720;DHT22;3902;49.474;8.616;2022-07-23T02:26:45;24.40;99.90
7720;DHT22;3902;49.474;8.616;2022-07-23T02:29:11;24.40;99.90
7720;DHT22;3902;49.474;8.616;2022-07-23T02:31:36;24.30;99.90
7720;DHT22;3902;49.474;8.616;2022-07-23T02:34:02;24.30;99.90
7720;DHT22;3902;49.474;8.616;2022-07-23T02:36:28;24.30;99.90
7720;DHT22;3902;49.474;8.616;2022-07-23T02:38:54;24.20;99.90
7720;DHT22;3902;49.474;8.616;2022-07-23T02:41:19;24.20;99.90
7720;DHT22;3902;49.474;8.616;2022-07-23T02:43:45;24.20;99.90
7720;DHT22;3902;49.474;8.616;2022-07-23T02:46:10;24.20;99.90
7720;DHT22;3902;49.474;8.616;2022-07-23T02:48:36;24.20;99.90
7720;DHT22;3902;49.474;8.616;2022-07-23T02:51:01;24.20;99.90
7720;DHT22;3902;49.474;8.616;2022-07-23T02:53:27;24.10;99.90
7720;DHT22;3902;49.474;8.616;2022-07-23T02:55:52;24.10;99.90
7720;DHT22;3902;49.474;8.616;2022-07-23T02:58:18;24.10;99.90
7720;DHT22;3902;49.474;8.616;2022-07-23T03:00:43;24.10;99.90
7720;DHT22;3902;49.474;8.616;2022-07-23T03:03:09;24.00;99.90
7720;DHT22;3902;49.474;8.616;2022-07-23T03:05:35;24.00;99.90
7720;DHT22;3902;49.474;8.616;2022-07-23T03:08:00;24.00;99.90
7720;DHT22;3902;49.474;8.616;2022-07-23T03:10:26;24.00;99.90
7720;DHT22;3902;49.474;8.616;2022-07-23T03:12:52;24.00;99.90
7720;DHT22;3902;49.474;8.616;2022-07-23T03:15:17;23.90;99.90
7720;DHT22;3902;49.474;8.616;2022-07-23T03:17:43;23.90;99.90
7720;DHT22;3902;49.474;8.616;2022-07-23T03:20:09;23.80;99.90
7720;DHT22;3902;49.474;8.616;2022-07-23T03:22:35;23.80;99.90
7720;DHT22;3902;49.474;8.616;2022-07-23T03:25:00;23.80;99.90
7720;DHT22;3902;49.474;8.616;2022-07-23T03:27:28;23.90;99.90
7720;DHT22;3902;49.474;8.616;2022-07-23T03:29:55;23.90;99.90
7720;DHT22;3902;49.474;8.616;2022-07-23T03:32:21;23.80;99.90
7720;DHT22;3902;49.474;8.616;2022-07-23T03:34:48;23.80;99.90
7720;DHT22;3902;49.474;8.616;2022-07-23T03:37:13;23.80;99.90
7720;DHT22;3902;49.474;8.616;2022-07-23T03:39:39;23.80;99.90
7720;DHT22;3902;49.474;8.616;2022-07-23T03:42:07;23.80;99.90
7720;DHT22;3902;49.474;8.616;2022-07-23T03:44:32;23.80;99.90
7720;DHT22;3902;49.474;8.616;2022-07-23T03:46:58;23.80;99.90
7720;DHT22;3902;49.474;8.616;2022-07-23T03:49:24;23.70;99.90
7720;DHT22;3902;49.474;8.616;2022-07-23T03:51:49;23.70;99.90
7720;DHT22;3902;49.474;8.616;2022-07-23T03:54:15;23.70;99.90
7720;DHT22;3902;49.474;8.616;2022-07-23T03:56:41;23.70;99.90
7720;DHT22;3902;49.474;8.616;2022-07-23T03:59:08;23.80;99.90
7720;DHT22;3902;49.474;8.616;2022-07-23T04:01:34;23.70;99.90
7720;DHT22;3902;49.474;8.616;2022-07-23T04:03:59;23.70;99.90
7720;DHT22;3902;49.474;8.616;2022-07-23T04:06:25;23.70;99.90
7720;DHT22;3902;49.474;8.616;2022-07-23T04:08:50;23.70;99.90
7720;DHT22;3902;49.474;8.616;2022-07-23T04:11:16;23.70;99.90
7720;DHT22;3902;49.474;8.616;2022-07-23T04:13:42;23.60;99.90
7720;DHT22;3902;49.474;8.616;2022-07-23T04:16:07;23.60;99.90
7720;DHT22;3902;49.474;8.616;2022-07-23T04:18:33;23.70;99.90
7720;DHT22;3902;49.474;8.616;2022-07-23T04:20:58;23.60;99.90
7720;DHT22;3902;49.474;8.616;2022-07-23T04:23:24;23.60;99.90
7720;DHT22;3902;49.474;8.616;2022-07-23T04:25:49;23.60;99.90
7720;DHT22;3902;49.474;8.616;2022-07-23T04:28:15;23.30;99.90
7720;DHT22;3902;49.474;8.616;2022-07-23T04:30:40;23.40;99.90
7720;DHT22;3902;49.474;8.616;2022-07-23T04:33:06;23.50;99.90
7720;DHT22;3902;49.474;8.616;2022-07-23T04:35:35;23.50;99.90
7720;DHT22;3902;49.474;8.616;2022-07-23T04:48:07;23.50;99.90
7720;DHT22;3902;49.474;8.616;2022-07-23T04:50:32;23.50;99.90
7720;DHT22;3902;49.474;8.616;2022-07-23T04:52:58;23.40;99.90
7720;DHT22;3902;49.474;8.616;2022-07-23T04:55:24;23.50;99.90
7720;DHT22;3902;49.474;8.616;2022-07-23T04:57:49;23.40;99.90
7720;DHT22;3902;49.474;8.616;2022-07-23T05:00:15;23.30;99.90
7720;DHT22;3902;49.474;8.616;2022-07-23T05:02:41;23.30;99.90
7720;DHT22;3902;49.474;8.616;2022-07-23T05:05:06;23.30;99.90
7720;DHT22;3902;49.474;8.616;2022-07-23T05:07:32;23.20;99.90
7720;DHT22;3902;49.474;8.616;2022-07-23T05:09:58;23.20;99.90
7720;DHT22;3902;49.474;8.616;2022-07-23T05:12:23;23.00;99.90
7720;DHT22;3902;49.474;8.616;2022-07-23T05:14:49;22.90;99.90
7720;DHT22;3902;49.474;8.616;2022-07-23T05:17:14;23.00;99.90
7720;DHT22;3902;49.474;8.616;2022-07-23T05:19:40;23.00;99.90
7720;DHT22;3902;49.474;8.616;2022-07-23T05:22:05;23.00;99.90
7720;DHT22;3902;49.474;8.616;2022-07-23T05:24:31;23.00;99.90
7720;DHT22;3902;49.474;8.616;2022-07-23T05:26:56;23.00;99.90
7720;DHT22;3902;49.474;8.616;2022-07-23T05:29:22;23.00;99.90
7720;DHT22;3902;49.474;8.616;2022-07-23T05:31:47;23.00;99.90
7720;DHT22;3902;49.474;8.616;2022-07-23T05:34:13;23.00;99.90
7720;DHT22;3902;49.474;8.616;2022-07-23T05:36:39;23.00;99.90
7720;DHT22;3902;49.474;8.616;2022-07-23T05:39:04;22.90;99.90
7720;DHT22;3902;49.474;8.616;2022-07-23T05:41:30;22.90;99.90
7720;DHT22;3902;49.474;8.616;2022-07-23T05:43:56;22.90;99.90
7720;DHT22;3902;49.474;8.616;2022-07-23T05:46:22;22.90;99.90
7720;DHT22;3902;49.474;8.616;2022-07-23T05:48:47;22.80;99.90
7720;DHT22;3902;49.474;8.616;2022-07-23T05:51:22;22.70;99.90
7720;DHT22;3902;49.474;8.616;2022-07-23T05:53:48;22.70;99.90
7720;DHT22;3902;49.474;8.616;2022-07-23T05:56:15;22.70;99.90
7720;DHT22;3902;49.474;8.616;2022-07-23T05:58:41;22.70;99.90
7720;DHT22;3902;49.474;8.616;2022-07-23T06:01:06;22.70;99.90
7720;DHT22;3902;49.474;8.616;2022-07-23T06:03:32;22.70;99.90
7720;DHT22;3902;49.474;8.616;2022-07-23T06:05:57;22.80;99.90
7720;DHT22;3902;49.474;8.616;2022-07-23T06:08:23;22.80;99.90
7720;DHT22;3902;49.474;8.616;2022-07-23T06:10:48;22.80;99.90
7720;DHT22;3902;49.474;8.616;2022-07-23T06:13:16;22.80;99.90
7720;DHT22;3902;49.474;8.616;2022-07-23T06:15:42;22.80;99.90
7720;DHT22;3902;49.474;8.616;2022-07-23T06:18:07;22.90;99.90
7720;DHT22;3902;49.474;8.616;2022-07-23T06:20:33;22.90;99.90
7720;DHT22;3902;49.474;8.616;2022-07-23T06:22:59;22.90;99.90
7720;DHT22;3902;49.474;8.616;2022-07-23T06:25:24;22.90;99.90
7720;DHT22;3902;49.474;8.616;2022-07-23T06:27:50;22.70;99.90
7720;DHT22;3902;49.474;8.616;2022-07-23T06:30:15;22.80;99.90
7720;DHT22;3902;49.474;8.616;2022-07-23T06:32:47;22.80;99.90
7720;DHT22;3902;49.474;8.616;2022-07-23T06:35:14;22.80;99.90
7720;DHT22;3902;49.474;8.616;2022-07-23T06:37:39;22.80;99.90
7720;DHT22;3902;49.474;8.616;2022-07-23T06:40:05;22.70;99.90
7720;DHT22;3902;49.474;8.616;2022-07-23T06:42:31;22.70;99.90
7720;DHT22;3902;49.474;8.616;2022-07-23T06:44:56;22.80;99.90
7720;DHT22;3902;49.474;8.616;2022-07-23T06:47:22;22.80;99.90
7720;DHT22;3902;49.474;8.616;2022-07-23T06:49:47;22.80;99.90
7720;DHT22;3902;49.474;8.616;2022-07-23T06:52:13;22.90;99.90
7720;DHT22;3902;49.474;8.616;2022-07-23T06:54:39;22.90;99.90
7720;DHT22;3902;49.474;8.616;2022-07-23T06:57:04;22.90;99.90
7720;DHT22;3902;49.474;8.616;2022-07-23T06:59:30;22.90;99.90
7720;DHT22;3902;49.474;8.616;2022-07-23T07:01:55;23.00;99.90
7720;DHT22;3902;49.474;8.616;2022-07-23T07:04:22;23.00;99.90
7720;DHT22;3902;49.474;8.616;2022-07-23T07:06:48;23.00;99.90
7720;DHT22;3902;49.474;8.616;2022-07-23T07:09:13;23.00;99.90
7720;DHT22;3902;49.474;8.616;2022-07-23T07:11:39;23.00;99.90
7720;DHT22;3902;49.474;8.616;2022-07-23T07:14:04;23.00;99.90
7720;DHT22;3902;49.474;8.616;2022-07-23T07:16:30;22.90;99.90
7720;DHT22;3902;49.474;8.616;2022-07-23T07:18:55;23.00;99.90
7720;DHT22;3902;49.474;8.616;2022-07-23T07:21:21;23.00;99.90
7720;DHT22;3902;49.474;8.616;2022-07-23T07:23:47;23.00;99.90
7720;DHT22;3902;49.474;8.616;2022-07-23T07:26:12;23.10;99.90
7720;DHT22;3902;49.474;8.616;2022-07-23T07:28:38;23.10;99.90
7720;DHT22;3902;49.474;8.616;2022-07-23T07:31:03;23.20;99.90
7720;DHT22;3902;49.474;8.616;2022-07-23T07:33:29;23.20;99.90
7720;DHT22;3902;49.474;8.616;2022-07-23T07:35:54;23.20;99.90
7720;DHT22;3902;49.474;8.616;2022-07-23T07:38:20;23.20;99.90
7720;DHT22;3902;49.474;8.616;2022-07-23T07:40:45;23.30;99.90
7720;DHT22;3902;49.474;8.616;2022-07-23T07:43:11;23.40;99.90
7720;DHT22;3902;49.474;8.616;2022-07-23T07:45:36;23.40;99.90
7720;DHT22;3902;49.474;8.616;2022-07-23T07:48:02;23.50;99.90
7720;DHT22;3902;49.474;8.616;2022-07-23T07:50:28;23.50;99.90
7720;DHT22;3902;49.474;8.616;2022-07-23T07:52:53;23.50;99.90
7720;DHT22;3902;49.474;8.616;2022-07-23T07:55:19;23.50;99.90
7720;DHT22;3902;49.474;8.616;2022-07-23T07:57:45;23.50;99.90
7720;DHT22;3902;49.474;8.616;2022-07-23T08:00:10;23.50;99.90
7720;DHT22;3902;49.474;8.616;2022-07-23T08:02:45;23.60;99.90
7720;DHT22;3902;49.474;8.616;2022-07-23T08:05:11;23.60;99.90
7720;DHT22;3902;49.474;8.616;2022-07-23T08:07:38;23.70;99.90
7720;DHT22;3902;49.474;8.616;2022-07-23T08:10:05;23.70;99.90
7720;DHT22;3902;49.474;8.616;2022-07-23T08:12:48;23.80;99.90
7720;DHT22;3902;49.474;8.616;2022-07-23T08:15:16;23.80;99.90
7720;DHT22;3902;49.474;8.616;2022-07-23T08:17:44;23.90;99.90
7720;DHT22;3902;49.474;8.616;2022-07-23T08:20:11;23.90;99.90
7720;DHT22;3902;49.474;8.616;2022-07-23T08:22:58;23.90;99.90
7720;DHT22;3902;49.474;8.616;2022-07-23T08:25:33;23.90;99.90
7720;DHT22;3902;49.474;8.616;2022-07-23T08:28:00;23.90;99.90
7720;DHT22;3902;49.474;8.616;2022-07-23T08:30:26;23.90;99.90
7720;DHT22;3902;49.474;8.616;2022-07-23T08:32:57;23.90;99.90
7720;DHT22;3902;49.474;8.616;2022-07-23T08:35:30;23.90;99.90
7720;DHT22;3902;49.474;8.616;2022-07-23T08:37:57;24.00;99.90
7720;DHT22;3902;49.474;8.616;2022-07-23T08:40:25;24.00;99.90
7720;DHT22;3902;49.474;8.616;2022-07-23T08:42:51;24.10;99.90
7720;DHT22;3902;49.474;8.616;2022-07-23T08:45:18;24.00;99.90
7720;DHT22;3902;49.474;8.616;2022-07-23T08:47:50;24.00;99.90
7720;DHT22;3902;49.474;8.616;2022-07-23T08:50:16;24.10;99.90
7720;DHT22;3902;49.474;8.616;2022-07-23T08:52:41;24.20;99.90
7720;DHT22;3902;49.474;8.616;2022-07-23T08:55:07;24.20;99.90
7720;DHT22;3902;49.474;8.616;2022-07-23T08:57:33;24.30;99.90
7720;DHT22;3902;49.474;8.616;2022-07-23T08:59:59;24.30;99.90
7720;DHT22;3902;49.474;8.616;2022-07-23T09:02:24;24.20;99.90
7720;DHT22;3902;49.474;8.616;2022-07-23T09:04:50;24.20;99.90
7720;DHT22;3902;49.474;8.616;2022-07-23T09:07:15;24.30;99.90
7720;DHT22;3902;49.474;8.616;2022-07-23T09:09:41;24.30;99.90
7720;DHT22;3902;49.474;8.616;2022-07-23T09:12:09;24.30;99.90
7720;DHT22;3902;49.474;8.616;2022-07-23T09:14:43;24.40;99.90
7720;DHT22;3902;49.474;8.616;2022-07-23T09:17:14;24.50;99.90
7720;DHT22;3902;49.474;8.616;2022-07-23T09:19:41;24.50;99.90
7720;DHT22;3902;49.474;8.616;2022-07-23T09:25:10;24.60;99.90
7720;DHT22;3902;49.474;8.616;2022-07-23T09:28:05;24.70;99.90
7720;DHT22;3902;49.474;8.616;2022-07-23T09:30:33;24.80;99.90
7720;DHT22;3902;49.474;8.616;2022-07-23T09:33:12;24.90;99.90
7720;DHT22;3902;49.474;8.616;2022-07-23T09:35:52;25.00;99.90
7720;DHT22;3902;49.474;8.616;2022-07-23T09:38:20;25.00;99.90
7720;DHT22;3902;49.474;8.616;2022-07-23T09:40:47;25.10;99.90
7720;DHT22;3902;49.474;8.616;2022-07-23T09:43:29;25.10;99.90
7720;DHT22;3902;49.474;8.616;2022-07-23T09:48:44;25.10;99.90
7720;DHT22;3902;49.474;8.616;2022-07-23T09:51:10;25.20;99.90
7720;DHT22;3902;49.474;8.616;2022-07-23T09:53:35;25.30;99.90
7720;DHT22;3902;49.474;8.616;2022-07-23T09:56:02;25.40;99.90
7720;DHT22;3902;49.474;8.616;2022-07-23T09:58:28;25.50;99.90
7720;DHT22;3902;49.474;8.616;2022-07-23T10:00:56;25.60;99.90
7720;DHT22;3902;49.474;8.616;2022-07-23T10:03:23;25.60;99.90
7720;DHT22;3902;49.474;8.616;2022-07-23T10:05:50;25.70;99.90
7720;DHT22;3902;49.474;8.616;2022-07-23T10:08:18;25.80;99.90
7720;DHT22;3902;49.474;8.616;2022-07-23T10:10:46;25.80;99.90
7720;DHT22;3902;49.474;8.616;2022-07-23T10:13:12;26.00;99.90
7720;DHT22;3902;49.474;8.616;2022-07-23T10:16:08;26.10;99.90
7720;DHT22;3902;49.474;8.616;2022-07-23T10:18:34;26.20;99.90
7720;DHT22;3902;49.474;8.616;2022-07-23T10:21:00;26.20;99.90
7720;DHT22;3902;49.474;8.616;2022-07-23T10:23:38;26.30;99.90
7720;DHT22;3902;49.474;8.616;2022-07-23T10:26:22;26.30;99.90
7720;DHT22;3902;49.474;8.616;2022-07-23T10:29:18;26.30;99.90
7720;DHT22;3902;49.474;8.616;2022-07-23T10:34:48;26.50;99.90
7720;DHT22;3902;49.474;8.616;2022-07-23T10:37:38;26.60;99.90
7720;DHT22;3902;49.474;8.616;2022-07-23T10:40:18;26.80;99.90
7720;DHT22;3902;49.474;8.616;2022-07-23T10:42:45;26.80;99.90
7720;DHT22;3902;49.474;8.616;2022-07-23T10:45:35;26.90;99.90
7720;DHT22;3902;49.474;8.616;2022-07-23T10:48:15;27.10;99.90
7720;DHT22;3902;49.474;8.616;2022-07-23T10:50:41;27.20;99.90
7720;DHT22;3902;49.474;8.616;2022-07-23T10:53:11;27.20;99.90
7720;DHT22;3902;49.474;8.616;2022-07-23T10:58:04;27.40;99.90
7720;DHT22;3902;49.474;8.616;2022-07-23T11:00:32;27.50;99.90
7720;DHT22;3902;49.474;8.616;2022-07-23T11:03:02;27.70;99.90
7720;DHT22;3902;49.474;8.616;2022-07-23T11:05:45;27.80;99.90
7720;DHT22;3902;49.474;8.616;2022-07-23T11:16:03;28.40;99.90
7720;DHT22;3902;49.474;8.616;2022-07-23T11:24:16;28.50;99.90
7720;DHT22;3902;49.474;8.616;2022-07-23T11:26:50;28.50;99.90
7720;DHT22;3902;49.474;8.616;2022-07-23T11:37:01;28.50;99.90
7720;DHT22;3902;49.474;8.616;2022-07-23T11:39:29;28.40;99.90
7720;DHT22;3902;49.474;8.616;2022-07-23T11:41:55;28.50;99.90
7720;DHT22;3902;49.474;8.616;2022-07-23T11:44:29;28.50;99.90
7720;DHT22;3902;49.474;8.616;2022-07-23T11:47:06;28.60;99.90
7720;DHT22;3902;49.474;8.616;2022-07-23T11:49:33;28.70;99.90
7720;DHT22;3902;49.474;8.616;2022-07-23T11:52:25;28.90;99.90
7720;DHT22;3902;49.474;8.616;2022-07-23T11:57:24;29.20;99.90
7720;DHT22;3902;49.474;8.616;2022-07-23T11:59:55;29.40;99.90
7720;DHT22;3902;49.474;8.616;2022-07-23T12:02:21;29.50;99.90
7720;DHT22;3902;49.474;8.616;2022-07-23T12:04:49;29.60;99.90
7720;DHT22;3902;49.474;8.616;2022-07-23T12:09:50;29.70;99.90
7720;DHT22;3902;49.474;8.616;2022-07-23T12:12:15;29.70;99.90
7720;DHT22;3902;49.474;8.616;2022-07-23T12:14:49;29.70;99.90
7720;DHT22;3902;49.474;8.616;2022-07-23T12:17:14;29.70;99.90
7720;DHT22;3902;49.474;8.616;2022-07-23T12:19:40;29.70;99.90
7720;DHT22;3902;49.474;8.616;2022-07-23T12:22:07;29.80;99.90
7720;DHT22;3902;49.474;8.616;2022-07-23T12:24:55;29.70;99.90
7720;DHT22;3902;49.474;8.616;2022-07-23T12:27:22;29.80;99.90
7720;DHT22;3902;49.474;8.616;2022-07-23T12:29:48;29.80;99.90
7720;DHT22;3902;49.474;8.616;2022-07-23T12:32:25;29.80;99.90
7720;DHT22;3902;49.474;8.616;2022-07-23T12:35:05;29.80;99.90
7720;DHT22;3902;49.474;8.616;2022-07-23T12:37:37;29.90;99.90
7720;DHT22;3902;49.474;8.616;2022-07-23T12:40:22;29.80;99.90
7720;DHT22;3902;49.474;8.616;2022-07-23T12:42:54;29.70;99.90
7720;DHT22;3902;49.474;8.616;2022-07-23T12:45:21;29.70;99.90
7720;DHT22;3902;49.474;8.616;2022-07-23T12:47:57;29.50;99.90
7720;DHT22;3902;49.474;8.616;2022-07-23T12:50:49;29.40;99.90
7720;DHT22;3902;49.474;8.616;2022-07-23T12:55:59;29.00;99.90
7720;DHT22;3902;49.474;8.616;2022-07-23T12:58:25;28.90;99.90
7720;DHT22;3902;49.474;8.616;2022-07-23T13:03:41;29.00;99.90
7720;DHT22;3902;49.474;8.616;2022-07-23T13:06:08;29.10;99.90
7720;DHT22;3902;49.474;8.616;2022-07-23T13:08:36;29.30;99.90
7720;DHT22;3902;49.474;8.616;2022-07-23T13:11:02;29.20;99.90
7720;DHT22;3902;49.474;8.616;2022-07-23T13:13:30;29.30;99.90
7720;DHT22;3902;49.474;8.616;2022-07-23T13:15:57;29.70;99.90
7720;DHT22;3902;49.474;8.616;2022-07-23T13:18:23;29.90;99.90
7720;DHT22;3902;49.474;8.616;2022-07-23T13:20:48;30.10;99.90
7720;DHT22;3902;49.474;8.616;2022-07-23T13:23:15;30.10;99.90
7720;DHT22;3902;49.474;8.616;2022-07-23T13:25:41;30.10;99.90
7720;DHT22;3902;49.474;8.616;2022-07-23T13:28:07;29.80;99.90
7720;DHT22;3902;49.474;8.616;2022-07-23T13:30:33;29.70;99.90
7720;DHT22;3902;49.474;8.616;2022-07-23T13:32:59;29.60;99.90
7720;DHT22;3902;49.474;8.616;2022-07-23T13:35:24;29.50;99.90
7720;DHT22;3902;49.474;8.616;2022-07-23T13:37:50;29.40;99.90
7720;DHT22;3902;49.474;8.616;2022-07-23T13:40:16;29.20;99.90
7720;DHT22;3902;49.474;8.616;2022-07-23T13:42:41;29.10;99.90
7720;DHT22;3902;49.474;8.616;2022-07-23T13:45:07;28.90;99.90
7720;DHT22;3902;49.474;8.616;2022-07-23T13:47:33;29.00;99.90
7720;DHT22;3902;49.474;8.616;2022-07-23T13:49:59;29.00;99.90
7720;DHT22;3902;49.474;8.616;2022-07-23T13:52:24;29.10;99.90
7720;DHT22;3902;49.474;8.616;2022-07-23T13:54:50;29.20;99.90
7720;DHT22;3902;49.474;8.616;2022-07-23T13:57:16;29.20;99.90
7720;DHT22;3902;49.474;8.616;2022-07-23T13:59:42;29.10;99.90
7720;DHT22;3902;49.474;8.616;2022-07-23T14:02:07;29.20;99.90
7720;DHT22;3902;49.474;8.616;2022-07-23T14:04:34;29.20;99.90
7720;DHT22;3902;49.474;8.616;2022-07-23T14:07:00;29.20;99.90
7720;DHT22;3902;49.474;8.616;2022-07-23T14:09:26;29.40;99.90
7720;DHT22;3902;49.474;8.616;2022-07-23T14:11:52;29.50;99.90
7720;DHT22;3902;49.474;8.616;2022-07-23T14:14:17;29.60;99.90
7720;DHT22;3902;49.474;8.616;2022-07-23T14:16:43;29.90;99.90
7720;DHT22;3902;49.474;8.616;2022-07-23T14:19:09;30.10;99.90
7720;DHT22;3902;49.474;8.616;2022-07-23T14:21:35;30.30;99.90
7720;DHT22;3902;49.474;8.616;2022-07-23T14:24:01;30.50;99.60
7720;DHT22;3902;49.474;8.616;2022-07-23T14:26:27;30.70;99.90
7720;DHT22;3902;49.474;8.616;2022-07-23T14:28:52;30.90;99.90
7720;DHT22;3902;49.474;8.616;2022-07-23T14:31:18;31.00;99.00
7720;DHT22;3902;49.474;8.616;2022-07-23T14:33:43;31.20;98.80
7720;DHT22;3902;49.474;8.616;2022-07-23T14:36:09;31.00;97.00
7720;DHT22;3902;49.474;8.616;2022-07-23T14:38:35;31.00;97.50
7720;DHT22;3902;49.474;8.616;2022-07-23T14:41:00;31.10;98.50
7720;DHT22;3902;49.474;8.616;2022-07-23T14:43:26;31.00;97.50
7720;DHT22;3902;49.474;8.616;2022-07-23T14:45:51;30.90;97.90
7720;DHT22;3902;49.474;8.616;2022-07-23T14:48:17;31.00;97.70
7720;DHT22;3902;49.474;8.616;2022-07-23T14:50:42;31.00;97.40
7720;DHT22;3902;49.474;8.616;2022-07-23T14:53:08;31.20;97.00
7720;DHT22;3902;49.474;8.616;2022-07-23T14:55:34;31.20;96.20
7720;DHT22;3902;49.474;8.616;2022-07-23T14:58:00;31.30;96.90
7720;DHT22;3902;49.474;8.616;2022-07-23T15:00:25;31.50;97.40
7720;DHT22;3902;49.474;8.616;2022-07-23T15:02:52;31.40;96.00
7720;DHT22;3902;49.474;8.616;2022-07-23T15:05:18;31.40;95.40
7720;DHT22;3902;49.474;8.616;2022-07-23T15:07:44;31.20;94.90
7720;DHT22;3902;49.474;8.616;2022-07-23T15:10:09;31.20;95.50
7720;DHT22;3902;49.474;8.616;2022-07-23T15:12:35;31.20;95.00
7720;DHT22;3902;49.474;8.616;2022-07-23T15:15:00;31.10;94.40
7720;DHT22;3902;49.474;8.616;2022-07-23T15:17:26;31.20;94.40
7720;DHT22;3902;49.474;8.616;2022-07-23T15:19:51;31.00;94.70
7720;DHT22;3902;49.474;8.616;2022-07-23T15:22:17;31.20;94.80
7720;DHT22;3902;49.474;8.616;2022-07-23T15:24:43;31.30;95.10
7720;DHT22;3902;49.474;8.616;2022-07-23T15:27:09;31.30;95.30
7720;DHT22;3902;49.474;8.616;2022-07-23T15:29:35;31.40;95.60
7720;DHT22;3902;49.474;8.616;2022-07-23T15:32:02;31.50;95.60
7720;DHT22;3902;49.474;8.616;2022-07-23T15:34:28;31.50;95.00
7720;DHT22;3902;49.474;8.616;2022-07-23T15:36:54;31.40;94.00
7720;DHT22;3902;49.474;8.616;2022-07-23T15:39:20;31.30;93.50
7720;DHT22;3902;49.474;8.616;2022-07-23T15:41:45;31.20;94.60
7720;DHT22;3902;49.474;8.616;2022-07-23T15:44:11;31.20;94.70
7720;DHT22;3902;49.474;8.616;2022-07-23T15:46:37;31.10;94.70
7720;DHT22;3902;49.474;8.616;2022-07-23T15:49:02;30.90;94.00
7720;DHT22;3902;49.474;8.616;2022-07-23T15:51:28;30.70;94.50
7720;DHT22;3902;49.474;8.616;2022-07-23T15:53:54;30.70;95.50
7720;DHT22;3902;49.474;8.616;2022-07-23T15:56:20;30.60;96.30
7720;DHT22;3902;49.474;8.616;2022-07-23T15:58:45;30.60;96.40
7720;DHT22;3902;49.474;8.616;2022-07-23T16:01:11;30.50;96.20
7720;DHT22;3902;49.474;8.616;2022-07-23T16:03:37;30.40;96.00
7720;DHT22;3902;49.474;8.616;2022-07-23T16:06:04;30.40;95.80
7720;DHT22;3902;49.474;8.616;2022-07-23T16:08:30;30.30;96.20
7720;DHT22;3902;49.474;8.616;2022-07-23T16:10:56;30.20;96.10
7720;DHT22;3902;49.474;8.616;2022-07-23T16:13:25;30.20;95.90
7720;DHT22;3902;49.474;8.616;2022-07-23T16:15:51;30.10;96.20
7720;DHT22;3902;49.474;8.616;2022-07-23T16:18:19;30.00;96.60
7720;DHT22;3902;49.474;8.616;2022-07-23T16:20:45;30.00;96.40
7720;DHT22;3902;49.474;8.616;2022-07-23T16:23:10;29.90;96.40
7720;DHT22;3902;49.474;8.616;2022-07-23T16:25:36;29.90;96.70
7720;DHT22;3902;49.474;8.616;2022-07-23T16:28:02;29.80;96.30
7720;DHT22;3902;49.474;8.616;2022-07-23T16:30:27;29.80;96.10
7720;DHT22;3902;49.474;8.616;2022-07-23T16:32:53;29.80;96.50
7720;DHT22;3902;49.474;8.616;2022-07-23T16:35:18;29.70;96.70
7720;DHT22;3902;49.474;8.616;2022-07-23T16:37:44;29.70;97.00
7720;DHT22;3902;49.474;8.616;2022-07-23T16:40:11;29.70;97.20
7720;DHT22;3902;49.474;8.616;2022-07-23T16:42:37;29.70;97.20
7720;DHT22;3902;49.474;8.616;2022-07-23T16:45:04;29.60;96.50
7720;DHT22;3902;49.474;8.616;2022-07-23T16:47:30;29.60;95.60
7720;DHT22;3902;49.474;8.616;2022-07-23T16:49:55;29.60;96.00
7720;DHT22;3902;49.474;8.616;2022-07-23T16:52:21;29.60;96.40
7720;DHT22;3902;49.474;8.616;2022-07-23T16:54:47;29.60;96.40